sensor_id;sensor_type;location;lat;lon;timestamp;P1;durP1;ratioP1;P2;durP2;ratioP2
39814;SDS011;25495;45.948;4.568;2022-12-18T00:01:46;64.53;;;25.85;;
39814;SDS011;25495;45.948;4.568;2022-12-18T00:04:18;67.40;;;26.05;;
39814;SDS011;25495;45.948;4.568;2022-12-18T00:06:46;65.65;;;25.08;;
39814;SDS011;25495;45.948;4.568;2022-12-18T00:09:12;70.60;;;27.20;;
39814;SDS011;25495;45.948;4.568;2022-12-18T00:11:39;77.47;;;29.25;;
39814;SDS011;25495;45.948;4.568;2022-12-18T00:14:05;61.38;;;25.10;;
39814;SDS011;25495;45.948;4.568;2022-12-18T00:16:31;67.20;;;26.30;;
39814;SDS011;25495;45.948;4.568;2022-12-18T00:18:58;70.57;;;28.15;;
39814;SDS011;25495;45.948;4.568;2022-12-18T00:21:25;67.80;;;27.58;;
39814;SDS011;25495;45.948;4.568;2022-12-18T00:23:52;68.70;;;26.63;;
39814;SDS011;25495;45.948;4.568;2022-12-18T00:26:28;77.38;;;29.55;;
39814;SDS011;25495;45.948;4.568;2022-12-18T00:28:58;75.07;;;27.67;;
39814;SDS011;25495;45.948;4.568;2022-12-18T00:31:25;70.43;;;25.98;;
39814;SDS011;25495;45.948;4.568;2022-12-18T00:33:53;63.53;;;24.10;;
39814;SDS011;25495;45.948;4.568;2022-12-18T00:36:21;62.30;;;24.92;;
39814;SDS011;25495;45.948;4.568;2022-12-18T00:38:49;72.00;;;28.27;;
39814;SDS011;25495;45.948;4.568;2022-12-18T00:41:15;66.20;;;26.70;;
39814;SDS011;25495;45.948;4.568;2022-12-18T00:44:02;58.15;;;25.17;;
39814;SDS011;25495;45.948;4.568;2022-12-18T00:46:30;57.75;;;25.17;;
39814;SDS011;25495;45.948;4.568;2022-12-18T00:48:56;68.00;;;26.95;;
39814;SDS011;25495;45.948;4.568;2022-12-18T00:51:22;60.10;;;25.80;;
39814;SDS011;25495;45.948;4.568;2022-12-18T00:53:48;67.20;;;26.38;;
39814;SDS011;25495;45.948;4.568;2022-12-18T00:56:14;62.05;;;25.23;;
39814;SDS011;25495;45.948;4.568;2022-12-18T00:58:39;62.85;;;24.52;;
39814;SDS011;25495;45.948;4.568;2022-12-18T01:01:06;71.63;;;27.02;;
39814;SDS011;25495;45.948;4.568;2022-12-18T01:03:32;74.35;;;26.67;;
39814;SDS011;25495;45.948;4.568;2022-12-18T01:05:58;70.15;;;26.05;;
39814;SDS011;25495;45.948;4.568;2022-12-18T01:08:24;71.45;;;26.20;;
39814;SDS011;25495;45.948;4.568;2022-12-18T01:10:50;64.60;;;24.90;;
39814;SDS011;25495;45.948;4.568;2022-12-18T01:13:15;69.63;;;26.15;;
39814;SDS011;25495;45.948;4.568;2022-12-18T01:15:47;69.65;;;27.40;;
39814;SDS011;25495;45.948;4.568;2022-12-18T01:18:16;66.55;;;26.00;;
39814;SDS011;25495;45.948;4.568;2022-12-18T01:20:42;62.15;;;25.58;;
39814;SDS011;25495;45.948;4.568;2022-12-18T01:23:08;55.72;;;24.08;;
39814;SDS011;25495;45.948;4.568;2022-12-18T01:25:38;63.92;;;26.23;;
39814;SDS011;25495;45.948;4.568;2022-12-18T01:28:04;57.95;;;23.73;;
39814;SDS011;25495;45.948;4.568;2022-12-18T01:30:29;55.95;;;21.95;;
39814;SDS011;25495;45.948;4.568;2022-12-18T01:32:55;52.63;;;21.80;;
39814;SDS011;25495;45.948;4.568;2022-12-18T01:35:21;55.67;;;21.38;;
39814;SDS011;25495;45.948;4.568;2022-12-18T01:37:47;47.67;;;21.42;;
39814;SDS011;25495;45.948;4.568;2022-12-18T01:40:13;43.15;;;18.67;;
39814;SDS011;25495;45.948;4.568;2022-12-18T01:42:38;47.38;;;19.55;;
39814;SDS011;25495;45.948;4.568;2022-12-18T01:47:41;51.90;;;20.67;;
39814;SDS011;25495;45.948;4.568;2022-12-18T01:52:49;56.85;;;22.85;;
39814;SDS011;25495;45.948;4.568;2022-12-18T01:55:28;56.85;;;21.95;;
39814;SDS011;25495;45.948;4.568;2022-12-18T01:58:00;57.30;;;21.52;;
39814;SDS011;25495;45.948;4.568;2022-12-18T02:00:26;72.57;;;26.98;;
39814;SDS011;25495;45.948;4.568;2022-12-18T02:02:53;65.70;;;24.17;;
39814;SDS011;25495;45.948;4.568;2022-12-18T02:08:22;63.35;;;24.40;;
39814;SDS011;25495;45.948;4.568;2022-12-18T02:11:12;59.88;;;25.13;;
39814;SDS011;25495;45.948;4.568;2022-12-18T02:14:01;61.92;;;24.38;;
39814;SDS011;25495;45.948;4.568;2022-12-18T02:25:07;67.20;;;24.50;;
39814;SDS011;25495;45.948;4.568;2022-12-18T02:27:54;63.65;;;25.05;;
39814;SDS011;25495;45.948;4.568;2022-12-18T02:32:52;63.88;;;24.27;;
39814;SDS011;25495;45.948;4.568;2022-12-18T02:35:23;68.82;;;26.58;;
39814;SDS011;25495;45.948;4.568;2022-12-18T02:37:52;60.08;;;24.65;;
39814;SDS011;25495;45.948;4.568;2022-12-18T02:40:19;58.80;;;22.27;;
39814;SDS011;25495;45.948;4.568;2022-12-18T02:42:48;60.88;;;24.10;;
39814;SDS011;25495;45.948;4.568;2022-12-18T02:45:14;68.57;;;23.88;;
39814;SDS011;25495;45.948;4.568;2022-12-18T02:47:40;79.07;;;29.40;;
39814;SDS011;25495;45.948;4.568;2022-12-18T02:55:55;73.57;;;26.58;;
39814;SDS011;25495;45.948;4.568;2022-12-18T02:58:35;71.03;;;27.10;;
39814;SDS011;25495;45.948;4.568;2022-12-18T03:03:51;60.17;;;21.73;;
39814;SDS011;25495;45.948;4.568;2022-12-18T03:09:12;61.58;;;20.38;;
39814;SDS011;25495;45.948;4.568;2022-12-18T03:11:46;64.50;;;19.08;;
39814;SDS011;25495;45.948;4.568;2022-12-18T03:14:37;56.35;;;20.48;;
39814;SDS011;25495;45.948;4.568;2022-12-18T03:17:05;81.85;;;23.45;;
39814;SDS011;25495;45.948;4.568;2022-12-18T03:19:40;95.85;;;28.15;;
39814;SDS011;25495;45.948;4.568;2022-12-18T03:22:07;83.93;;;23.88;;
39814;SDS011;25495;45.948;4.568;2022-12-18T03:24:35;89.00;;;27.63;;
39814;SDS011;25495;45.948;4.568;2022-12-18T03:27:05;73.78;;;24.90;;
39814;SDS011;25495;45.948;4.568;2022-12-18T03:29:39;85.13;;;22.13;;
39814;SDS011;25495;45.948;4.568;2022-12-18T03:32:11;97.60;;;22.70;;
39814;SDS011;25495;45.948;4.568;2022-12-18T03:34:41;79.55;;;23.00;;
39814;SDS011;25495;45.948;4.568;2022-12-18T03:37:08;95.78;;;29.55;;
39814;SDS011;25495;45.948;4.568;2022-12-18T03:39:35;71.22;;;25.08;;
39814;SDS011;25495;45.948;4.568;2022-12-18T03:42:07;67.65;;;25.27;;
39814;SDS011;25495;45.948;4.568;2022-12-18T03:44:57;112.00;;;32.67;;
39814;SDS011;25495;45.948;4.568;2022-12-18T03:47:26;65.90;;;22.27;;
39814;SDS011;25495;45.948;4.568;2022-12-18T03:50:11;63.63;;;22.23;;
39814;SDS011;25495;45.948;4.568;2022-12-18T03:52:42;77.40;;;23.15;;
39814;SDS011;25495;45.948;4.568;2022-12-18T03:55:17;107.38;;;33.08;;
39814;SDS011;25495;45.948;4.568;2022-12-18T03:57:46;82.20;;;27.25;;
39814;SDS011;25495;45.948;4.568;2022-12-18T04:00:14;74.88;;;24.52;;
39814;SDS011;25495;45.948;4.568;2022-12-18T04:02:44;107.88;;;31.90;;
39814;SDS011;25495;45.948;4.568;2022-12-18T04:05:15;68.03;;;25.85;;
39814;SDS011;25495;45.948;4.568;2022-12-18T04:07:42;67.38;;;23.83;;
39814;SDS011;25495;45.948;4.568;2022-12-18T04:10:11;66.85;;;23.40;;
39814;SDS011;25495;45.948;4.568;2022-12-18T04:12:38;92.28;;;20.95;;
39814;SDS011;25495;45.948;4.568;2022-12-18T04:15:04;80.20;;;20.75;;
39814;SDS011;25495;45.948;4.568;2022-12-18T04:17:30;116.50;;;17.85;;
39814;SDS011;25495;45.948;4.568;2022-12-18T04:19:56;101.10;;;19.85;;
39814;SDS011;25495;45.948;4.568;2022-12-18T04:22:21;67.05;;;21.88;;
39814;SDS011;25495;45.948;4.568;2022-12-18T04:24:47;71.28;;;20.27;;
39814;SDS011;25495;45.948;4.568;2022-12-18T04:27:13;97.65;;;19.70;;
39814;SDS011;25495;45.948;4.568;2022-12-18T04:29:39;126.03;;;19.23;;
39814;SDS011;25495;45.948;4.568;2022-12-18T04:32:04;98.30;;;20.05;;
39814;SDS011;25495;45.948;4.568;2022-12-18T04:34:30;55.65;;;20.17;;
39814;SDS011;25495;45.948;4.568;2022-12-18T04:36:56;60.95;;;20.48;;
39814;SDS011;25495;45.948;4.568;2022-12-18T04:39:22;122.15;;;19.88;;
39814;SDS011;25495;45.948;4.568;2022-12-18T04:41:47;53.83;;;20.13;;
39814;SDS011;25495;45.948;4.568;2022-12-18T04:44:13;68.43;;;23.25;;
39814;SDS011;25495;45.948;4.568;2022-12-18T04:46:39;62.58;;;22.27;;
39814;SDS011;25495;45.948;4.568;2022-12-18T04:49:05;65.60;;;22.35;;
39814;SDS011;25495;45.948;4.568;2022-12-18T04:51:30;59.30;;;21.95;;
39814;SDS011;25495;45.948;4.568;2022-12-18T04:53:56;55.95;;;21.48;;
39814;SDS011;25495;45.948;4.568;2022-12-18T04:56:22;61.50;;;22.27;;
39814;SDS011;25495;45.948;4.568;2022-12-18T04:58:48;53.97;;;19.77;;
39814;SDS011;25495;45.948;4.568;2022-12-18T05:01:14;60.15;;;20.70;;
39814;SDS011;25495;45.948;4.568;2022-12-18T05:03:42;73.00;;;24.42;;
39814;SDS011;25495;45.948;4.568;2022-12-18T05:06:08;58.88;;;23.15;;
39814;SDS011;25495;45.948;4.568;2022-12-18T05:08:34;64.13;;;22.73;;
39814;SDS011;25495;45.948;4.568;2022-12-18T05:11:07;58.13;;;21.25;;
39814;SDS011;25495;45.948;4.568;2022-12-18T05:13:34;55.60;;;21.48;;
39814;SDS011;25495;45.948;4.568;2022-12-18T05:16:00;65.32;;;22.30;;
39814;SDS011;25495;45.948;4.568;2022-12-18T05:18:27;67.97;;;24.38;;
39814;SDS011;25495;45.948;4.568;2022-12-18T05:20:54;58.50;;;22.92;;
39814;SDS011;25495;45.948;4.568;2022-12-18T05:23:20;65.53;;;23.48;;
39814;SDS011;25495;45.948;4.568;2022-12-18T05:25:53;73.00;;;24.23;;
39814;SDS011;25495;45.948;4.568;2022-12-18T05:28:24;61.40;;;22.65;;
39814;SDS011;25495;45.948;4.568;2022-12-18T05:30:52;52.58;;;19.77;;
39814;SDS011;25495;45.948;4.568;2022-12-18T05:33:20;73.90;;;23.38;;
39814;SDS011;25495;45.948;4.568;2022-12-18T05:35:50;56.95;;;21.88;;
39814;SDS011;25495;45.948;4.568;2022-12-18T05:40:43;64.57;;;23.00;;
39814;SDS011;25495;45.948;4.568;2022-12-18T05:43:09;61.35;;;21.35;;
39814;SDS011;25495;45.948;4.568;2022-12-18T05:45:38;66.72;;;23.55;;
39814;SDS011;25495;45.948;4.568;2022-12-18T05:48:05;72.03;;;23.80;;
39814;SDS011;25495;45.948;4.568;2022-12-18T05:50:38;57.70;;;20.33;;
39814;SDS011;25495;45.948;4.568;2022-12-18T05:53:06;66.55;;;22.38;;
39814;SDS011;25495;45.948;4.568;2022-12-18T05:55:36;66.07;;;22.55;;
39814;SDS011;25495;45.948;4.568;2022-12-18T05:58:03;71.68;;;24.17;;
39814;SDS011;25495;45.948;4.568;2022-12-18T06:00:30;62.97;;;21.98;;
39814;SDS011;25495;45.948;4.568;2022-12-18T06:02:57;55.15;;;20.90;;
39814;SDS011;25495;45.948;4.568;2022-12-18T06:05:24;58.15;;;21.65;;
39814;SDS011;25495;45.948;4.568;2022-12-18T06:07:50;61.83;;;21.42;;
39814;SDS011;25495;45.948;4.568;2022-12-18T06:10:17;56.72;;;21.83;;
39814;SDS011;25495;45.948;4.568;2022-12-18T06:12:43;52.90;;;20.65;;
39814;SDS011;25495;45.948;4.568;2022-12-18T06:15:09;50.83;;;19.05;;
39814;SDS011;25495;45.948;4.568;2022-12-18T06:17:36;71.85;;;22.02;;
39814;SDS011;25495;45.948;4.568;2022-12-18T06:20:02;57.50;;;20.60;;
39814;SDS011;25495;45.948;4.568;2022-12-18T06:22:30;57.50;;;21.10;;
39814;SDS011;25495;45.948;4.568;2022-12-18T06:24:56;50.83;;;20.92;;
39814;SDS011;25495;45.948;4.568;2022-12-18T06:27:22;55.65;;;19.17;;
39814;SDS011;25495;45.948;4.568;2022-12-18T06:29:48;53.25;;;19.73;;
39814;SDS011;25495;45.948;4.568;2022-12-18T06:32:14;53.03;;;18.75;;
39814;SDS011;25495;45.948;4.568;2022-12-18T06:34:40;49.65;;;17.63;;
39814;SDS011;25495;45.948;4.568;2022-12-18T06:37:06;57.13;;;19.85;;
39814;SDS011;25495;45.948;4.568;2022-12-18T06:39:31;56.95;;;19.70;;
39814;SDS011;25495;45.948;4.568;2022-12-18T06:41:57;55.70;;;20.08;;
39814;SDS011;25495;45.948;4.568;2022-12-18T06:44:23;57.42;;;20.13;;
39814;SDS011;25495;45.948;4.568;2022-12-18T06:46:48;59.92;;;20.20;;
39814;SDS011;25495;45.948;4.568;2022-12-18T06:49:14;51.50;;;18.67;;
39814;SDS011;25495;45.948;4.568;2022-12-18T06:51:41;51.38;;;20.48;;
39814;SDS011;25495;45.948;4.568;2022-12-18T06:54:07;58.88;;;20.77;;
39814;SDS011;25495;45.948;4.568;2022-12-18T06:56:32;57.63;;;20.75;;
39814;SDS011;25495;45.948;4.568;2022-12-18T06:58:58;51.83;;;19.23;;
39814;SDS011;25495;45.948;4.568;2022-12-18T07:01:24;54.42;;;18.80;;
39814;SDS011;25495;45.948;4.568;2022-12-18T07:03:54;47.28;;;18.20;;
39814;SDS011;25495;45.948;4.568;2022-12-18T07:06:22;48.05;;;18.50;;
39814;SDS011;25495;45.948;4.568;2022-12-18T07:08:49;50.55;;;18.45;;
39814;SDS011;25495;45.948;4.568;2022-12-18T07:11:16;47.60;;;17.23;;
39814;SDS011;25495;45.948;4.568;2022-12-18T07:13:43;49.92;;;19.30;;
39814;SDS011;25495;45.948;4.568;2022-12-18T07:16:10;49.08;;;18.98;;
39814;SDS011;25495;45.948;4.568;2022-12-18T07:18:38;45.17;;;18.20;;
39814;SDS011;25495;45.948;4.568;2022-12-18T07:21:05;116.25;;;18.02;;
39814;SDS011;25495;45.948;4.568;2022-12-18T07:23:32;65.75;;;20.58;;
39814;SDS011;25495;45.948;4.568;2022-12-18T07:26:06;66.53;;;22.40;;
39814;SDS011;25495;45.948;4.568;2022-12-18T07:28:35;77.68;;;20.92;;
39814;SDS011;25495;45.948;4.568;2022-12-18T07:31:06;65.88;;;20.48;;
39814;SDS011;25495;45.948;4.568;2022-12-18T07:33:34;57.15;;;19.52;;
39814;SDS011;25495;45.948;4.568;2022-12-18T07:36:00;54.08;;;19.38;;
39814;SDS011;25495;45.948;4.568;2022-12-18T07:38:28;56.42;;;20.77;;
39814;SDS011;25495;45.948;4.568;2022-12-18T07:40:54;59.70;;;20.27;;
39814;SDS011;25495;45.948;4.568;2022-12-18T07:43:20;65.57;;;19.75;;
39814;SDS011;25495;45.948;4.568;2022-12-18T07:45:48;56.83;;;18.67;;
39814;SDS011;25495;45.948;4.568;2022-12-18T07:48:15;58.85;;;20.02;;
39814;SDS011;25495;45.948;4.568;2022-12-18T07:50:40;53.65;;;19.83;;
39814;SDS011;25495;45.948;4.568;2022-12-18T07:53:06;49.15;;;19.33;;
39814;SDS011;25495;45.948;4.568;2022-12-18T07:55:32;63.17;;;22.15;;
39814;SDS011;25495;45.948;4.568;2022-12-18T07:58:00;53.30;;;19.15;;
39814;SDS011;25495;45.948;4.568;2022-12-18T08:00:26;53.53;;;19.95;;
39814;SDS011;25495;45.948;4.568;2022-12-18T08:02:52;55.85;;;20.42;;
39814;SDS011;25495;45.948;4.568;2022-12-18T08:05:18;50.80;;;19.60;;
39814;SDS011;25495;45.948;4.568;2022-12-18T08:07:43;56.90;;;19.67;;
39814;SDS011;25495;45.948;4.568;2022-12-18T08:10:09;53.70;;;19.63;;
39814;SDS011;25495;45.948;4.568;2022-12-18T08:12:35;63.63;;;21.27;;
39814;SDS011;25495;45.948;4.568;2022-12-18T08:15:01;54.25;;;21.00;;
39814;SDS011;25495;45.948;4.568;2022-12-18T08:17:26;82.90;;;32.67;;
39814;SDS011;25495;45.948;4.568;2022-12-18T08:19:52;78.32;;;20.80;;
39814;SDS011;25495;45.948;4.568;2022-12-18T08:22:18;64.78;;;21.02;;
39814;SDS011;25495;45.948;4.568;2022-12-18T08:24:44;54.42;;;18.98;;
39814;SDS011;25495;45.948;4.568;2022-12-18T08:27:10;54.30;;;20.15;;
39814;SDS011;25495;45.948;4.568;2022-12-18T08:29:36;67.50;;;26.02;;
39814;SDS011;25495;45.948;4.568;2022-12-18T08:32:02;55.28;;;20.67;;
39814;SDS011;25495;45.948;4.568;2022-12-18T08:34:28;54.95;;;21.42;;
39814;SDS011;25495;45.948;4.568;2022-12-18T08:36:54;73.85;;;29.08;;
39814;SDS011;25495;45.948;4.568;2022-12-18T08:39:20;55.80;;;21.15;;
39814;SDS011;25495;45.948;4.568;2022-12-18T08:41:45;53.15;;;18.92;;
39814;SDS011;25495;45.948;4.568;2022-12-18T08:44:32;63.35;;;21.92;;
39814;SDS011;25495;45.948;4.568;2022-12-18T08:47:04;55.28;;;17.50;;
39814;SDS011;25495;45.948;4.568;2022-12-18T08:49:31;49.33;;;17.85;;
39814;SDS011;25495;45.948;4.568;2022-12-18T08:51:58;152.50;;;15.27;;
39814;SDS011;25495;45.948;4.568;2022-12-18T08:54:24;71.40;;;16.55;;
39814;SDS011;25495;45.948;4.568;2022-12-18T08:56:51;82.93;;;18.55;;
39814;SDS011;25495;45.948;4.568;2022-12-18T08:59:17;50.33;;;16.90;;
39814;SDS011;25495;45.948;4.568;2022-12-18T09:01:44;60.03;;;18.48;;
39814;SDS011;25495;45.948;4.568;2022-12-18T09:04:10;48.25;;;17.55;;
39814;SDS011;25495;45.948;4.568;2022-12-18T09:06:36;52.92;;;17.35;;
39814;SDS011;25495;45.948;4.568;2022-12-18T09:09:03;48.20;;;16.25;;
39814;SDS011;25495;45.948;4.568;2022-12-18T09:11:30;44.47;;;17.42;;
39814;SDS011;25495;45.948;4.568;2022-12-18T09:13:57;49.28;;;18.05;;
39814;SDS011;25495;45.948;4.568;2022-12-18T09:16:24;46.72;;;17.25;;
39814;SDS011;25495;45.948;4.568;2022-12-18T09:18:50;50.33;;;19.65;;
39814;SDS011;25495;45.948;4.568;2022-12-18T09:21:18;53.08;;;18.48;;
39814;SDS011;25495;45.948;4.568;2022-12-18T09:23:51;51.00;;;19.20;;
39814;SDS011;25495;45.948;4.568;2022-12-18T09:26:18;217.68;;;15.65;;
39814;SDS011;25495;45.948;4.568;2022-12-18T09:28:45;47.00;;;17.08;;
39814;SDS011;25495;45.948;4.568;2022-12-18T09:31:14;52.58;;;18.10;;
39814;SDS011;25495;45.948;4.568;2022-12-18T09:33:40;56.67;;;17.98;;
39814;SDS011;25495;45.948;4.568;2022-12-18T09:36:07;43.00;;;17.00;;
39814;SDS011;25495;45.948;4.568;2022-12-18T09:38:34;44.03;;;15.48;;
39814;SDS011;25495;45.948;4.568;2022-12-18T09:41:25;40.78;;;15.70;;
39814;SDS011;25495;45.948;4.568;2022-12-18T09:44:13;37.70;;;15.85;;
39814;SDS011;25495;45.948;4.568;2022-12-18T09:46:55;148.50;;;15.45;;
39814;SDS011;25495;45.948;4.568;2022-12-18T09:49:24;78.32;;;16.63;;
39814;SDS011;25495;45.948;4.568;2022-12-18T09:51:57;144.70;;;14.27;;
39814;SDS011;25495;45.948;4.568;2022-12-18T09:54:33;85.43;;;11.35;;
39814;SDS011;25495;45.948;4.568;2022-12-18T09:57:03;35.97;;;15.23;;
39814;SDS011;25495;45.948;4.568;2022-12-18T09:59:35;84.13;;;14.10;;
39814;SDS011;25495;45.948;4.568;2022-12-18T10:13:22;64.93;;;21.60;;
39814;SDS011;25495;45.948;4.568;2022-12-18T10:21:07;59.83;;;17.27;;
39814;SDS011;25495;45.948;4.568;2022-12-18T10:23:45;46.00;;;17.17;;
39814;SDS011;25495;45.948;4.568;2022-12-18T10:26:33;60.72;;;21.55;;
39814;SDS011;25495;45.948;4.568;2022-12-18T10:29:00;58.78;;;20.90;;
39814;SDS011;25495;45.948;4.568;2022-12-18T10:31:26;99.55;;;16.45;;
39814;SDS011;25495;45.948;4.568;2022-12-18T10:33:55;58.67;;;22.17;;
39814;SDS011;25495;45.948;4.568;2022-12-18T10:36:22;83.97;;;17.13;;
39814;SDS011;25495;45.948;4.568;2022-12-18T10:38:49;48.03;;;18.23;;
39814;SDS011;25495;45.948;4.568;2022-12-18T10:43:44;50.95;;;19.17;;
39814;SDS011;25495;45.948;4.568;2022-12-18T10:46:17;49.10;;;17.67;;
39814;SDS011;25495;45.948;4.568;2022-12-18T10:48:50;58.78;;;22.50;;
39814;SDS011;25495;45.948;4.568;2022-12-18T10:54:03;48.33;;;17.77;;
39814;SDS011;25495;45.948;4.568;2022-12-18T10:56:49;47.42;;;17.92;;
39814;SDS011;25495;45.948;4.568;2022-12-18T10:59:16;90.80;;;18.70;;
39814;SDS011;25495;45.948;4.568;2022-12-18T11:01:50;57.05;;;21.67;;
39814;SDS011;25495;45.948;4.568;2022-12-18T11:07:00;65.72;;;20.23;;
39814;SDS011;25495;45.948;4.568;2022-12-18T11:09:31;58.35;;;20.80;;
39814;SDS011;25495;45.948;4.568;2022-12-18T11:12:06;60.40;;;21.13;;
39814;SDS011;25495;45.948;4.568;2022-12-18T11:14:53;56.72;;;21.13;;
39814;SDS011;25495;45.948;4.568;2022-12-18T11:17:23;71.47;;;20.02;;
39814;SDS011;25495;45.948;4.568;2022-12-18T11:19:58;58.20;;;16.40;;
39814;SDS011;25495;45.948;4.568;2022-12-18T11:22:27;78.70;;;21.52;;
39814;SDS011;25495;45.948;4.568;2022-12-18T11:24:59;62.90;;;20.02;;
39814;SDS011;25495;45.948;4.568;2022-12-18T11:29:51;53.63;;;20.17;;
39814;SDS011;25495;45.948;4.568;2022-12-18T11:32:37;69.88;;;20.10;;
39814;SDS011;25495;45.948;4.568;2022-12-18T11:37:34;52.55;;;19.90;;
39814;SDS011;25495;45.948;4.568;2022-12-18T11:40:13;58.42;;;21.30;;
39814;SDS011;25495;45.948;4.568;2022-12-18T11:42:54;77.20;;;23.15;;
39814;SDS011;25495;45.948;4.568;2022-12-18T11:45:40;58.55;;;18.42;;
39814;SDS011;25495;45.948;4.568;2022-12-18T11:48:24;56.55;;;21.17;;
39814;SDS011;25495;45.948;4.568;2022-12-18T11:51:14;74.47;;;26.15;;
39814;SDS011;25495;45.948;4.568;2022-12-18T11:53:51;108.25;;;37.45;;
39814;SDS011;25495;45.948;4.568;2022-12-18T12:07:02;64.43;;;24.20;;
39814;SDS011;25495;45.948;4.568;2022-12-18T12:09:32;68.10;;;22.20;;
39814;SDS011;25495;45.948;4.568;2022-12-18T12:17:32;86.30;;;29.65;;
39814;SDS011;25495;45.948;4.568;2022-12-18T12:25:33;73.38;;;25.38;;
39814;SDS011;25495;45.948;4.568;2022-12-18T12:33:46;74.25;;;26.90;;
39814;SDS011;25495;45.948;4.568;2022-12-18T12:38:44;79.55;;;27.50;;
39814;SDS011;25495;45.948;4.568;2022-12-18T12:41:17;66.93;;;24.88;;
39814;SDS011;25495;45.948;4.568;2022-12-18T12:44:06;92.53;;;27.25;;
39814;SDS011;25495;45.948;4.568;2022-12-18T12:46:39;81.55;;;26.08;;
39814;SDS011;25495;45.948;4.568;2022-12-18T12:49:14;73.60;;;26.48;;
39814;SDS011;25495;45.948;4.568;2022-12-18T12:51:44;70.85;;;25.98;;
39814;SDS011;25495;45.948;4.568;2022-12-18T12:54:22;103.63;;;33.35;;
39814;SDS011;25495;45.948;4.568;2022-12-18T12:56:53;89.18;;;29.13;;
39814;SDS011;25495;45.948;4.568;2022-12-18T12:59:45;110.72;;;36.13;;
39814;SDS011;25495;45.948;4.568;2022-12-18T13:02:24;90.50;;;31.38;;
39814;SDS011;25495;45.948;4.568;2022-12-18T13:05:39;71.05;;;25.10;;
39814;SDS011;25495;45.948;4.568;2022-12-18T13:08:30;85.25;;;29.25;;
39814;SDS011;25495;45.948;4.568;2022-12-18T13:11:28;75.53;;;27.42;;
39814;SDS011;25495;45.948;4.568;2022-12-18T13:14:23;73.20;;;26.02;;
39814;SDS011;25495;45.948;4.568;2022-12-18T13:19:42;70.57;;;26.40;;
39814;SDS011;25495;45.948;4.568;2022-12-18T13:22:24;68.45;;;25.58;;
39814;SDS011;25495;45.948;4.568;2022-12-18T13:24:58;76.00;;;29.37;;
39814;SDS011;25495;45.948;4.568;2022-12-18T13:35:40;55.45;;;25.50;;
39814;SDS011;25495;45.948;4.568;2022-12-18T13:38:23;57.60;;;26.58;;
39814;SDS011;25495;45.948;4.568;2022-12-18T13:51:39;55.22;;;24.27;;
39814;SDS011;25495;45.948;4.568;2022-12-18T13:57:06;53.95;;;23.73;;
39814;SDS011;25495;45.948;4.568;2022-12-18T13:59:58;57.45;;;24.63;;
39814;SDS011;25495;45.948;4.568;2022-12-18T14:02:44;53.72;;;23.63;;
39814;SDS011;25495;45.948;4.568;2022-12-18T14:05:21;56.67;;;23.58;;
39814;SDS011;25495;45.948;4.568;2022-12-18T14:07:46;55.47;;;25.00;;
39814;SDS011;25495;45.948;4.568;2022-12-18T14:10:13;55.25;;;24.02;;
39814;SDS011;25495;45.948;4.568;2022-12-18T14:12:44;50.17;;;21.63;;
39814;SDS011;25495;45.948;4.568;2022-12-18T14:18:01;47.78;;;21.02;;
39814;SDS011;25495;45.948;4.568;2022-12-18T14:20:34;56.85;;;24.25;;
39814;SDS011;25495;45.948;4.568;2022-12-18T14:23:00;49.75;;;20.55;;
39814;SDS011;25495;45.948;4.568;2022-12-18T14:27:53;54.25;;;21.52;;
39814;SDS011;25495;45.948;4.568;2022-12-18T14:30:28;48.83;;;22.35;;
39814;SDS011;25495;45.948;4.568;2022-12-18T14:33:03;48.88;;;22.50;;
39814;SDS011;25495;45.948;4.568;2022-12-18T14:38:21;47.30;;;20.58;;
39814;SDS011;25495;45.948;4.568;2022-12-18T14:40:55;52.28;;;20.92;;
39814;SDS011;25495;45.948;4.568;2022-12-18T14:43:25;53.90;;;21.17;;
39814;SDS011;25495;45.948;4.568;2022-12-18T14:45:52;52.53;;;23.60;;
39814;SDS011;25495;45.948;4.568;2022-12-18T14:48:31;47.28;;;21.60;;
39814;SDS011;25495;45.948;4.568;2022-12-18T14:51:15;51.53;;;21.63;;
39814;SDS011;25495;45.948;4.568;2022-12-18T14:53:44;48.20;;;21.48;;
39814;SDS011;25495;45.948;4.568;2022-12-18T14:56:13;52.45;;;22.58;;
39814;SDS011;25495;45.948;4.568;2022-12-18T14:58:43;54.22;;;21.30;;
39814;SDS011;25495;45.948;4.568;2022-12-18T15:01:17;45.30;;;20.52;;
39814;SDS011;25495;45.948;4.568;2022-12-18T15:03:47;53.28;;;21.33;;
39814;SDS011;25495;45.948;4.568;2022-12-18T15:06:17;50.85;;;20.98;;
39814;SDS011;25495;45.948;4.568;2022-12-18T15:08:50;45.45;;;19.90;;
39814;SDS011;25495;45.948;4.568;2022-12-18T15:11:30;45.55;;;21.20;;
39814;SDS011;25495;45.948;4.568;2022-12-18T15:14:28;48.53;;;20.63;;
39814;SDS011;25495;45.948;4.568;2022-12-18T15:16:57;50.28;;;20.83;;
39814;SDS011;25495;45.948;4.568;2022-12-18T15:19:42;43.38;;;19.63;;
39814;SDS011;25495;45.948;4.568;2022-12-18T15:22:17;47.45;;;21.05;;
39814;SDS011;25495;45.948;4.568;2022-12-18T15:24:49;43.85;;;19.33;;
39814;SDS011;25495;45.948;4.568;2022-12-18T15:27:29;42.40;;;20.30;;
39814;SDS011;25495;45.948;4.568;2022-12-18T15:32:35;40.53;;;17.35;;
39814;SDS011;25495;45.948;4.568;2022-12-18T15:37:42;38.20;;;17.58;;
39814;SDS011;25495;45.948;4.568;2022-12-18T15:40:11;44.65;;;20.33;;
39814;SDS011;25495;45.948;4.568;2022-12-18T15:42:38;43.22;;;18.25;;
39814;SDS011;25495;45.948;4.568;2022-12-18T15:45:22;37.67;;;15.52;;
39814;SDS011;25495;45.948;4.568;2022-12-18T15:47:47;28.20;;;14.60;;
39814;SDS011;25495;45.948;4.568;2022-12-18T15:50:13;33.60;;;15.50;;
39814;SDS011;25495;45.948;4.568;2022-12-18T15:52:41;35.38;;;16.30;;
39814;SDS011;25495;45.948;4.568;2022-12-18T15:55:16;43.35;;;17.95;;
39814;SDS011;25495;45.948;4.568;2022-12-18T15:58:03;35.20;;;18.25;;
39814;SDS011;25495;45.948;4.568;2022-12-18T16:00:33;32.78;;;17.38;;
39814;SDS011;25495;45.948;4.568;2022-12-18T16:03:00;40.72;;;18.42;;
39814;SDS011;25495;45.948;4.568;2022-12-18T16:05:26;45.65;;;22.10;;
39814;SDS011;25495;45.948;4.568;2022-12-18T16:07:52;48.70;;;23.48;;
39814;SDS011;25495;45.948;4.568;2022-12-18T16:10:18;39.03;;;19.52;;
39814;SDS011;25495;45.948;4.568;2022-12-18T16:12:44;36.22;;;17.33;;
39814;SDS011;25495;45.948;4.568;2022-12-18T16:15:12;44.83;;;21.73;;
39814;SDS011;25495;45.948;4.568;2022-12-18T16:17:42;39.63;;;19.35;;
39814;SDS011;25495;45.948;4.568;2022-12-18T16:20:12;30.63;;;15.75;;
39814;SDS011;25495;45.948;4.568;2022-12-18T16:22:40;25.25;;;11.70;;
39814;SDS011;25495;45.948;4.568;2022-12-18T16:25:10;22.98;;;11.35;;
39814;SDS011;25495;45.948;4.568;2022-12-18T16:27:47;20.00;;;10.73;;
39814;SDS011;25495;45.948;4.568;2022-12-18T16:30:14;22.92;;;11.27;;
39814;SDS011;25495;45.948;4.568;2022-12-18T16:32:40;17.90;;;9.70;;
39814;SDS011;25495;45.948;4.568;2022-12-18T16:35:08;22.67;;;11.40;;
39814;SDS011;25495;45.948;4.568;2022-12-18T16:37:35;14.55;;;7.85;;
39814;SDS011;25495;45.948;4.568;2022-12-18T16:40:01;11.00;;;6.47;;
39814;SDS011;25495;45.948;4.568;2022-12-18T16:42:27;15.93;;;6.85;;
39814;SDS011;25495;45.948;4.568;2022-12-18T16:44:52;14.57;;;7.68;;
39814;SDS011;25495;45.948;4.568;2022-12-18T16:47:18;14.98;;;6.60;;
39814;SDS011;25495;45.948;4.568;2022-12-18T16:49:44;13.73;;;6.72;;